createdAt,value
2019-02-25T14:09:43.018Z,10.03
2019-02-25T14:12:11.298Z,10.80
2019-02-25T14:14:39.608Z,11.22
2019-02-25T14:17:07.872Z,11.85
2019-02-25T14:19:36.281Z,10.98
2019-02-25T14:22:04.629Z,11.15
2019-02-25T14:24:33.161Z,10.53
2019-02-25T14:27:01.506Z,11.45
2019-02-25T14:29:29.845Z,11.00
2019-02-25T14:31:58.176Z,10.90
2019-02-25T14:34:26.513Z,11.05
2019-02-25T14:36:55.443Z,10.90
2019-02-25T14:39:27.777Z,11.12
2019-02-25T14:41:56.822Z,11.65
2019-02-25T14:44:27.171Z,10.63
2019-02-25T14:46:56.614Z,11.60
2019-02-25T14:49:24.793Z,10.58
2019-02-25T14:51:53.119Z,10.15
2019-02-25T14:54:22.221Z,9.80
2019-02-25T14:56:52.738Z,10.85
2019-02-25T14:59:22.317Z,10.48
2019-02-25T15:01:50.722Z,10.95
2019-02-25T15:04:18.982Z,10.18
2019-02-25T15:09:18.503Z,10.88
2019-02-25T15:11:46.856Z,11.57
2019-02-25T15:14:16.989Z,11.03
2019-02-25T15:16:45.194Z,11.48
2019-02-25T15:19:15.139Z,11.57
2019-02-25T15:21:45.422Z,11.50
2019-02-25T15:24:14.728Z,11.33
2019-02-25T15:26:43.422Z,11.30
2019-02-25T15:29:11.931Z,29.37
2019-02-25T15:31:40.282Z,12.15
2019-02-25T15:34:08.963Z,17.05
2019-02-25T15:36:38.630Z,12.20
2019-02-25T15:39:07.247Z,31.27
2019-02-25T15:41:35.581Z,12.37
2019-02-25T15:44:04.814Z,13.78
2019-02-25T15:46:33.830Z,11.57
2019-02-25T15:49:02.179Z,12.03
2019-02-25T15:51:32.580Z,11.57
2019-02-25T15:54:00.468Z,11.28
2019-02-25T15:56:28.727Z,11.80
2019-02-25T15:58:57.005Z,11.80
2019-02-25T16:01:25.627Z,10.63
2019-02-25T16:03:56.526Z,10.68
2019-02-25T16:06:26.981Z,10.18
2019-02-25T16:08:54.447Z,10.15
2019-02-25T16:11:25.694Z,10.88
2019-02-25T16:19:13.519Z,10.25
2019-02-25T16:21:45.037Z,11.28
2019-02-25T16:24:16.455Z,11.53
2019-02-25T16:26:44.914Z,11.12
2019-02-25T16:29:13.497Z,12.10
2019-02-25T16:31:41.899Z,11.73
2019-02-25T16:34:11.722Z,11.97
2019-02-25T16:36:40.571Z,10.95
2019-02-25T16:39:10.027Z,10.20
2019-02-25T16:58:39.194Z,11.60
2019-02-25T17:07:32.014Z,11.83
2019-02-25T17:10:00.825Z,12.05
2019-02-25T17:12:59.578Z,11.43
2019-02-25T17:19:25.592Z,11.30
2019-02-25T17:21:55.300Z,12.18
2019-02-25T17:27:02.112Z,11.83
2019-02-25T19:06:07.273Z,16.27
2019-02-25T19:08:35.575Z,16.00
2019-02-25T19:11:13.230Z,15.50
2019-02-25T19:13:45.814Z,15.98
2019-02-25T19:16:13.719Z,14.93
2019-02-25T19:18:43.069Z,15.85
2019-02-25T19:21:40.736Z,16.48
2019-02-25T19:24:27.233Z,15.58
2019-02-25T19:26:55.591Z,16.32
2019-02-25T19:29:25.862Z,17.25
2019-02-25T19:31:56.298Z,17.42
2019-02-25T19:34:29.288Z,18.05
2019-02-25T19:40:22.008Z,19.00
2019-02-25T19:43:14.417Z,18.10
2019-02-25T19:45:43.738Z,17.20
2019-02-25T19:48:12.746Z,16.90
2019-02-25T19:50:50.710Z,17.25
2019-02-25T19:53:12.523Z,15.85
2019-02-25T19:56:07.944Z,17.40
2019-02-25T19:59:55.467Z,17.95
2019-02-25T20:02:27.133Z,17.23
2019-02-25T20:37:10.434Z,16.35
2019-02-25T20:39:41.090Z,18.05
2019-02-25T20:42:08.779Z,17.77
2019-02-25T20:44:37.213Z,18.37
2019-02-25T20:47:05.651Z,17.75
2019-02-25T20:49:38.504Z,17.57
2019-02-25T20:52:10.240Z,18.10
2019-02-25T20:54:41.528Z,17.42
2019-02-25T20:57:12.709Z,18.05
2019-02-25T20:59:42.229Z,17.23
2019-02-25T21:02:15.767Z,17.45
2019-02-25T21:04:40.821Z,16.73
2019-02-25T21:07:13.232Z,18.25
2019-02-25T21:09:43.763Z,18.32
2019-02-25T21:12:15.667Z,18.02
2019-02-25T21:14:48.162Z,18.27
2019-02-25T21:17:16.572Z,16.80
2019-02-25T21:19:45.017Z,18.37
2019-02-25T21:22:14.960Z,17.73
2019-02-25T21:24:43.378Z,18.27
2019-02-25T21:27:13.505Z,18.23
2019-02-25T21:29:41.875Z,17.05
2019-02-25T21:32:17.241Z,16.42
2019-02-25T21:34:50.097Z,17.82
2019-02-25T21:37:15.344Z,16.93
2019-02-25T21:39:43.690Z,16.17
2019-02-25T21:42:14.749Z,25.15
2019-02-25T21:44:46.444Z,25.10
2019-02-25T21:47:14.068Z,21.37
2019-02-25T21:49:42.423Z,17.52
2019-02-25T21:52:12.684Z,15.58
2019-02-25T21:54:40.760Z,15.80
2019-02-25T21:57:14.445Z,15.70
2019-02-25T21:59:42.416Z,15.93
2019-02-25T22:02:10.731Z,16.20
2019-02-25T22:04:42.358Z,16.35
2019-02-25T22:07:17.104Z,16.70
2019-02-25T22:13:08.772Z,17.87
2019-02-25T22:15:36.243Z,17.65
2019-02-25T22:18:06.344Z,17.17
2019-02-25T22:20:37.963Z,17.30
2019-02-25T22:23:06.207Z,17.67
2019-02-25T22:25:35.685Z,17.20
2019-02-25T22:28:05.443Z,19.12
2019-02-25T22:30:34.091Z,18.32
2019-02-25T22:33:04.482Z,18.30
2019-02-25T22:35:37.588Z,18.17
2019-02-25T22:38:05.830Z,18.55
2019-02-25T22:40:36.211Z,19.65
2019-02-25T22:43:04.130Z,18.65
2019-02-25T22:45:33.179Z,18.40
2019-02-25T22:48:02.440Z,19.25
2019-02-25T22:50:31.209Z,18.73
2019-02-25T22:53:01.636Z,18.48
2019-02-25T22:55:30.754Z,18.60
2019-02-25T22:57:59.045Z,18.98
2019-02-25T23:00:30.623Z,19.25
2019-02-25T23:02:58.994Z,19.32
2019-02-25T23:05:27.417Z,22.70
2019-02-25T23:07:55.738Z,23.10
2019-02-25T23:10:24.214Z,22.52
2019-02-25T23:12:52.823Z,22.40
2019-02-25T23:15:22.820Z,22.52
2019-02-25T23:17:51.263Z,22.45
2019-02-25T23:23:30.584Z,22.17
2019-02-25T23:25:59.729Z,23.95
2019-02-25T23:28:30.202Z,23.32
2019-02-25T23:30:58.076Z,21.85
2019-02-25T23:33:26.468Z,22.15
2019-02-25T23:35:56.440Z,22.55
2019-02-25T23:38:24.798Z,21.07
2019-02-25T23:40:53.103Z,21.17
2019-02-25T23:43:21.435Z,21.68
2019-02-25T23:45:49.746Z,21.57
2019-02-25T23:48:18.104Z,21.25
2019-02-25T23:50:48.148Z,21.77
2019-02-25T23:53:16.525Z,21.57
2019-02-25T23:55:47.156Z,21.60
2019-02-25T23:58:17.055Z,21.55
